sensor_id;sensor_type;location;lat;lon;timestamp;temperature;humidity
32147;DHT22;32190;49.112;8.598;2023-02-28T00:01:54;6.10;43.30
32147;DHT22;32190;49.112;8.598;2023-02-28T00:07:49;6.10;43.30
32147;DHT22;32190;49.112;8.598;2023-02-28T00:13:43;6.10;43.30
32147;DHT22;32190;49.112;8.598;2023-02-28T00:19:36;6.00;43.40
32147;DHT22;32190;49.112;8.598;2023-02-28T00:25:27;6.00;43.40
32147;DHT22;32190;49.112;8.598;2023-02-28T00:31:17;5.90;43.40
32147;DHT22;32190;49.112;8.598;2023-02-28T00:37:10;5.90;43.40
32147;DHT22;32190;49.112;8.598;2023-02-28T00:43:02;5.80;43.30
32147;DHT22;32190;49.112;8.598;2023-02-28T00:48:54;5.80;43.50
32147;DHT22;32190;49.112;8.598;2023-02-28T00:54:44;5.70;43.50
32147;DHT22;32190;49.112;8.598;2023-02-28T01:00:35;5.70;43.60
32147;DHT22;32190;49.112;8.598;2023-02-28T01:06:25;5.70;43.70
32147;DHT22;32190;49.112;8.598;2023-02-28T01:12:16;5.60;43.70
32147;DHT22;32190;49.112;8.598;2023-02-28T01:18:07;5.60;43.80
32147;DHT22;32190;49.112;8.598;2023-02-28T01:23:58;5.60;43.80
32147;DHT22;32190;49.112;8.598;2023-02-28T01:29:50;5.60;43.80
32147;DHT22;32190;49.112;8.598;2023-02-28T01:35:41;5.60;43.90
32147;DHT22;32190;49.112;8.598;2023-02-28T01:41:33;5.50;43.90
32147;DHT22;32190;49.112;8.598;2023-02-28T01:47:27;5.50;43.90
32147;DHT22;32190;49.112;8.598;2023-02-28T01:53:24;5.40;43.90
32147;DHT22;32190;49.112;8.598;2023-02-28T01:59:42;5.40;44.00
32147;DHT22;32190;49.112;8.598;2023-02-28T02:05:38;5.30;44.10
32147;DHT22;32190;49.112;8.598;2023-02-28T02:11:29;5.20;44.10
32147;DHT22;32190;49.112;8.598;2023-02-28T02:17:31;5.20;44.20
32147;DHT22;32190;49.112;8.598;2023-02-28T02:42:20;5.10;44.50
32147;DHT22;32190;49.112;8.598;2023-02-28T02:48:13;5.00;44.40
32147;DHT22;32190;49.112;8.598;2023-02-28T02:54:11;5.00;44.50
32147;DHT22;32190;49.112;8.598;2023-02-28T03:00:05;4.90;44.50
32147;DHT22;32190;49.112;8.598;2023-02-28T03:06:00;4.90;44.60
32147;DHT22;32190;49.112;8.598;2023-02-28T03:11:53;4.80;44.60
32147;DHT22;32190;49.112;8.598;2023-02-28T03:18:06;4.80;44.70
32147;DHT22;32190;49.112;8.598;2023-02-28T03:24:06;4.70;44.90
32147;DHT22;32190;49.112;8.598;2023-02-28T03:30:14;4.70;44.80
32147;DHT22;32190;49.112;8.598;2023-02-28T03:36:12;4.60;45.00
32147;DHT22;32190;49.112;8.598;2023-02-28T03:42:11;4.40;45.00
32147;DHT22;32190;49.112;8.598;2023-02-28T03:48:19;4.50;45.20
32147;DHT22;32190;49.112;8.598;2023-02-28T03:54:31;4.40;45.30
32147;DHT22;32190;49.112;8.598;2023-02-28T04:00:33;4.40;45.40
32147;DHT22;32190;49.112;8.598;2023-02-28T04:06:24;4.40;45.30
32147;DHT22;32190;49.112;8.598;2023-02-28T04:12:15;4.40;45.30
32147;DHT22;32190;49.112;8.598;2023-02-28T04:18:05;4.50;45.40
32147;DHT22;32190;49.112;8.598;2023-02-28T04:23:56;4.50;45.40
32147;DHT22;32190;49.112;8.598;2023-02-28T04:29:50;4.50;45.40
32147;DHT22;32190;49.112;8.598;2023-02-28T04:35:41;4.40;45.40
32147;DHT22;32190;49.112;8.598;2023-02-28T04:41:35;4.50;45.60
32147;DHT22;32190;49.112;8.598;2023-02-28T04:47:29;4.40;45.50
32147;DHT22;32190;49.112;8.598;2023-02-28T04:53:22;4.40;45.60
32147;DHT22;32190;49.112;8.598;2023-02-28T04:59:24;4.40;45.70
32147;DHT22;32190;49.112;8.598;2023-02-28T05:05:14;4.40;45.70
32147;DHT22;32190;49.112;8.598;2023-02-28T05:11:20;4.30;45.70
32147;DHT22;32190;49.112;8.598;2023-02-28T05:17:11;4.30;46.00
32147;DHT22;32190;49.112;8.598;2023-02-28T05:23:02;4.20;45.80
32147;DHT22;32190;49.112;8.598;2023-02-28T05:28:54;4.30;45.90
32147;DHT22;32190;49.112;8.598;2023-02-28T05:34:44;4.20;46.00
32147;DHT22;32190;49.112;8.598;2023-02-28T05:40:35;4.20;46.20
32147;DHT22;32190;49.112;8.598;2023-02-28T05:46:25;4.20;46.30
32147;DHT22;32190;49.112;8.598;2023-02-28T05:52:16;4.10;46.30
32147;DHT22;32190;49.112;8.598;2023-02-28T05:58:07;4.10;46.30
32147;DHT22;32190;49.112;8.598;2023-02-28T06:03:59;4.10;46.40
32147;DHT22;32190;49.112;8.598;2023-02-28T06:09:50;4.10;46.40
32147;DHT22;32190;49.112;8.598;2023-02-28T06:15:40;4.10;46.50
32147;DHT22;32190;49.112;8.598;2023-02-28T06:21:32;4.20;46.50
32147;DHT22;32190;49.112;8.598;2023-02-28T06:27:22;4.10;46.50
32147;DHT22;32190;49.112;8.598;2023-02-28T06:33:13;4.10;46.50
32147;DHT22;32190;49.112;8.598;2023-02-28T06:39:04;4.10;46.50
32147;DHT22;32190;49.112;8.598;2023-02-28T06:44:57;4.20;47.20
32147;DHT22;32190;49.112;8.598;2023-02-28T06:50:48;4.20;46.80
32147;DHT22;32190;49.112;8.598;2023-02-28T06:56:41;4.10;46.70
32147;DHT22;32190;49.112;8.598;2023-02-28T07:02:31;4.10;46.80
32147;DHT22;32190;49.112;8.598;2023-02-28T07:08:25;4.10;47.20
32147;DHT22;32190;49.112;8.598;2023-02-28T07:14:18;4.00;47.10
32147;DHT22;32190;49.112;8.598;2023-02-28T07:20:09;4.10;47.20
32147;DHT22;32190;49.112;8.598;2023-02-28T07:25:59;4.10;47.20
32147;DHT22;32190;49.112;8.598;2023-02-28T07:31:50;4.20;47.20
32147;DHT22;32190;49.112;8.598;2023-02-28T07:37:43;4.30;47.20
32147;DHT22;32190;49.112;8.598;2023-02-28T07:43:34;4.40;47.20
32147;DHT22;32190;49.112;8.598;2023-02-28T07:49:25;4.50;47.20
32147;DHT22;32190;49.112;8.598;2023-02-28T07:55:16;4.50;47.10
32147;DHT22;32190;49.112;8.598;2023-02-28T08:28:14;5.00;46.70
32147;DHT22;32190;49.112;8.598;2023-02-28T08:34:09;5.00;46.80
32147;DHT22;32190;49.112;8.598;2023-02-28T08:40:01;5.10;46.90
32147;DHT22;32190;49.112;8.598;2023-02-28T08:45:55;5.10;46.80
32147;DHT22;32190;49.112;8.598;2023-02-28T08:51:49;5.20;46.60
32147;DHT22;32190;49.112;8.598;2023-02-28T08:57:40;5.20;46.60
32147;DHT22;32190;49.112;8.598;2023-02-28T09:03:45;5.20;46.60
32147;DHT22;32190;49.112;8.598;2023-02-28T09:09:49;5.20;46.70
32147;DHT22;32190;49.112;8.598;2023-02-28T09:15:49;5.30;46.70
32147;DHT22;32190;49.112;8.598;2023-02-28T09:21:51;5.40;46.80
32147;DHT22;32190;49.112;8.598;2023-02-28T09:27:43;5.50;46.40
32147;DHT22;32190;49.112;8.598;2023-02-28T09:33:33;5.60;46.40
32147;DHT22;32190;49.112;8.598;2023-02-28T09:39:30;5.60;46.40
32147;DHT22;32190;49.112;8.598;2023-02-28T09:45:34;5.70;46.30
32147;DHT22;32190;49.112;8.598;2023-02-28T09:51:35;5.70;46.10
32147;DHT22;32190;49.112;8.598;2023-02-28T09:57:40;5.80;46.00
32147;DHT22;32190;49.112;8.598;2023-02-28T10:03:39;5.80;46.10
32147;DHT22;32190;49.112;8.598;2023-02-28T10:09:32;5.90;46.00
32147;DHT22;32190;49.112;8.598;2023-02-28T10:15:26;6.00;46.10
32147;DHT22;32190;49.112;8.598;2023-02-28T10:21:26;6.00;45.80
32147;DHT22;32190;49.112;8.598;2023-02-28T10:27:20;6.10;45.60
32147;DHT22;32190;49.112;8.598;2023-02-28T10:33:32;6.10;45.50
32147;DHT22;32190;49.112;8.598;2023-02-28T10:39:45;6.10;45.40
32147;DHT22;32190;49.112;8.598;2023-02-28T10:45:36;6.20;45.40
32147;DHT22;32190;49.112;8.598;2023-02-28T10:51:35;6.30;45.60
32147;DHT22;32190;49.112;8.598;2023-02-28T10:57:33;6.40;45.50
32147;DHT22;32190;49.112;8.598;2023-02-28T11:03:34;6.60;45.40
32147;DHT22;32190;49.112;8.598;2023-02-28T11:09:33;6.60;45.10
32147;DHT22;32190;49.112;8.598;2023-02-28T11:15:29;6.80;45.00
32147;DHT22;32190;49.112;8.598;2023-02-28T11:21:25;6.90;44.70
32147;DHT22;32190;49.112;8.598;2023-02-28T11:33:32;7.10;44.30
32147;DHT22;32190;49.112;8.598;2023-02-28T11:39:41;7.30;44.50
32147;DHT22;32190;49.112;8.598;2023-02-28T11:51:42;7.40;44.10
32147;DHT22;32190;49.112;8.598;2023-02-28T12:10:24;7.50;43.60
32147;DHT22;32190;49.112;8.598;2023-02-28T12:23:05;7.40;43.80
32147;DHT22;32190;49.112;8.598;2023-02-28T12:29:21;7.40;43.60
32147;DHT22;32190;49.112;8.598;2023-02-28T12:35:18;7.30;43.40
32147;DHT22;32190;49.112;8.598;2023-02-28T12:41:17;7.40;43.60
32147;DHT22;32190;49.112;8.598;2023-02-28T12:47:16;7.40;43.70
32147;DHT22;32190;49.112;8.598;2023-02-28T13:30:59;8.00;43.40
32147;DHT22;32190;49.112;8.598;2023-02-28T13:50:15;8.40;42.40
32147;DHT22;32190;49.112;8.598;2023-02-28T13:56:19;8.50;42.50
32147;DHT22;32190;49.112;8.598;2023-02-28T14:02:34;8.60;42.50
32147;DHT22;32190;49.112;8.598;2023-02-28T14:08:34;8.60;42.30
32147;DHT22;32190;49.112;8.598;2023-02-28T14:27:11;8.70;41.90
32147;DHT22;32190;49.112;8.598;2023-02-28T14:39:14;8.80;42.20
32147;DHT22;32190;49.112;8.598;2023-02-28T14:45:06;8.80;42.10
32147;DHT22;32190;49.112;8.598;2023-02-28T14:51:08;8.80;42.10
32147;DHT22;32190;49.112;8.598;2023-02-28T15:04:27;8.90;41.30
32147;DHT22;32190;49.112;8.598;2023-02-28T15:17:03;8.90;41.00
32147;DHT22;32190;49.112;8.598;2023-02-28T15:22:58;8.90;41.10
32147;DHT22;32190;49.112;8.598;2023-02-28T15:29:46;8.90;40.80
32147;DHT22;32190;49.112;8.598;2023-02-28T16:09:45;8.80;41.20
32147;DHT22;32190;49.112;8.598;2023-02-28T16:15:46;8.80;41.50
32147;DHT22;32190;49.112;8.598;2023-02-28T16:21:41;8.70;41.50
32147;DHT22;32190;49.112;8.598;2023-02-28T16:27:36;8.70;41.50
32147;DHT22;32190;49.112;8.598;2023-02-28T16:33:27;8.60;41.40
32147;DHT22;32190;49.112;8.598;2023-02-28T16:52:35;8.50;41.80
32147;DHT22;32190;49.112;8.598;2023-02-28T16:58:43;8.40;41.90
32147;DHT22;32190;49.112;8.598;2023-02-28T17:11:42;8.30;41.70
32147;DHT22;32190;49.112;8.598;2023-02-28T17:17:32;8.30;41.60
32147;DHT22;32190;49.112;8.598;2023-02-28T17:23:23;8.20;42.00
32147;DHT22;32190;49.112;8.598;2023-02-28T17:35:53;8.00;42.00
32147;DHT22;32190;49.112;8.598;2023-02-28T17:41:54;8.00;42.20
32147;DHT22;32190;49.112;8.598;2023-02-28T17:47:47;7.90;42.20
32147;DHT22;32190;49.112;8.598;2023-02-28T17:53:41;7.80;42.50
32147;DHT22;32190;49.112;8.598;2023-02-28T17:59:31;7.70;42.50
32147;DHT22;32190;49.112;8.598;2023-02-28T18:05:25;7.70;42.60
32147;DHT22;32190;49.112;8.598;2023-02-28T18:11:15;7.70;42.70
32147;DHT22;32190;49.112;8.598;2023-02-28T18:17:10;7.70;42.80
32147;DHT22;32190;49.112;8.598;2023-02-28T18:23:05;7.70;42.90
32147;DHT22;32190;49.112;8.598;2023-02-28T18:28:56;7.70;42.90
32147;DHT22;32190;49.112;8.598;2023-02-28T18:34:47;7.70;43.00
32147;DHT22;32190;49.112;8.598;2023-02-28T18:40:37;7.60;43.00
32147;DHT22;32190;49.112;8.598;2023-02-28T18:46:28;7.60;43.10
32147;DHT22;32190;49.112;8.598;2023-02-28T18:52:19;7.60;43.20
32147;DHT22;32190;49.112;8.598;2023-02-28T18:58:13;7.60;43.30
32147;DHT22;32190;49.112;8.598;2023-02-28T19:04:04;7.60;43.30
32147;DHT22;32190;49.112;8.598;2023-02-28T19:09:54;7.50;43.30
32147;DHT22;32190;49.112;8.598;2023-02-28T19:15:45;7.50;43.40
32147;DHT22;32190;49.112;8.598;2023-02-28T19:21:38;7.40;43.40
32147;DHT22;32190;49.112;8.598;2023-02-28T19:27:29;7.40;43.40
32147;DHT22;32190;49.112;8.598;2023-02-28T19:33:20;7.40;43.40
32147;DHT22;32190;49.112;8.598;2023-02-28T19:39:34;7.30;43.50
32147;DHT22;32190;49.112;8.598;2023-02-28T19:46:11;7.20;43.60
32147;DHT22;32190;49.112;8.598;2023-02-28T19:52:33;7.20;43.50
32147;DHT22;32190;49.112;8.598;2023-02-28T19:58:54;7.10;43.60
32147;DHT22;32190;49.112;8.598;2023-02-28T20:04:59;7.10;43.60
32147;DHT22;32190;49.112;8.598;2023-02-28T20:10:50;7.00;43.70
32147;DHT22;32190;49.112;8.598;2023-02-28T20:23:24;6.90;43.90
32147;DHT22;32190;49.112;8.598;2023-02-28T20:29:23;6.80;44.00
32147;DHT22;32190;49.112;8.598;2023-02-28T20:35:16;6.80;44.00
32147;DHT22;32190;49.112;8.598;2023-02-28T20:41:07;6.70;44.00
32147;DHT22;32190;49.112;8.598;2023-02-28T20:47:00;6.70;44.10
32147;DHT22;32190;49.112;8.598;2023-02-28T20:53:23;6.70;44.20
32147;DHT22;32190;49.112;8.598;2023-02-28T20:59:22;6.60;44.40
32147;DHT22;32190;49.112;8.598;2023-02-28T21:05:22;6.60;44.40
32147;DHT22;32190;49.112;8.598;2023-02-28T21:11:23;6.60;44.40
32147;DHT22;32190;49.112;8.598;2023-02-28T21:17:14;6.60;44.40
32147;DHT22;32190;49.112;8.598;2023-02-28T21:23:05;6.60;44.40
32147;DHT22;32190;49.112;8.598;2023-02-28T21:29:00;6.60;44.50
32147;DHT22;32190;49.112;8.598;2023-02-28T21:34:53;6.50;44.50
32147;DHT22;32190;49.112;8.598;2023-02-28T21:40:43;6.40;44.50
32147;DHT22;32190;49.112;8.598;2023-02-28T21:46:34;6.50;44.50
32147;DHT22;32190;49.112;8.598;2023-02-28T21:52:24;6.40;44.50
32147;DHT22;32190;49.112;8.598;2023-02-28T21:58:15;6.40;44.40
32147;DHT22;32190;49.112;8.598;2023-02-28T22:04:08;6.30;44.50
32147;DHT22;32190;49.112;8.598;2023-02-28T22:09:59;6.30;44.60
32147;DHT22;32190;49.112;8.598;2023-02-28T22:15:50;6.30;44.70
32147;DHT22;32190;49.112;8.598;2023-02-28T22:21:40;6.20;44.60
32147;DHT22;32190;49.112;8.598;2023-02-28T22:27:32;6.20;44.60
32147;DHT22;32190;49.112;8.598;2023-02-28T22:33:24;6.10;44.60
32147;DHT22;32190;49.112;8.598;2023-02-28T22:39:14;6.10;44.60
32147;DHT22;32190;49.112;8.598;2023-02-28T22:45:05;6.00;44.70
32147;DHT22;32190;49.112;8.598;2023-02-28T22:51:05;5.90;44.80
32147;DHT22;32190;49.112;8.598;2023-02-28T22:56:56;5.90;44.90
32147;DHT22;32190;49.112;8.598;2023-02-28T23:02:47;5.80;44.80
32147;DHT22;32190;49.112;8.598;2023-02-28T23:08:37;5.80;44.90
32147;DHT22;32190;49.112;8.598;2023-02-28T23:14:28;5.70;45.00
32147;DHT22;32190;49.112;8.598;2023-02-28T23:20:20;5.70;45.00
32147;DHT22;32190;49.112;8.598;2023-02-28T23:26:10;5.70;45.10
32147;DHT22;32190;49.112;8.598;2023-02-28T23:32:01;5.70;45.10
32147;DHT22;32190;49.112;8.598;2023-02-28T23:37:55;5.70;45.20
32147;DHT22;32190;49.112;8.598;2023-02-28T23:43:46;5.60;45.20
32147;DHT22;32190;49.112;8.598;2023-02-28T23:49:37;5.70;45.20
32147;DHT22;32190;49.112;8.598;2023-02-28T23:55:28;5.60;45.20
